sensor_id;sensor_type;location;lat;lon;timestamp;pressure;altitude;pressure_sealevel;temperature
64600;BMP280;6553;48.412;9.514;2022-10-30T00:00:30;71613.31;;;19.32
64600;BMP280;6553;48.412;9.514;2022-10-30T00:02:56;71607.25;;;19.31
64600;BMP280;6553;48.412;9.514;2022-10-30T00:05:22;71614.38;;;19.33
64600;BMP280;6553;48.412;9.514;2022-10-30T00:07:49;71613.84;;;19.32
64600;BMP280;6553;48.412;9.514;2022-10-30T00:10:16;71604.50;;;19.31
64600;BMP280;6553;48.412;9.514;2022-10-30T00:12:42;71610.56;;;19.32
64600;BMP280;6553;48.412;9.514;2022-10-30T00:15:09;71608.28;;;19.32
64600;BMP280;6553;48.412;9.514;2022-10-30T00:17:36;71612.25;;;19.31
64600;BMP280;6553;48.412;9.514;2022-10-30T00:20:02;71612.25;;;19.31
64600;BMP280;6553;48.412;9.514;2022-10-30T00:22:28;71615.03;;;19.31
64600;BMP280;6553;48.412;9.514;2022-10-30T00:24:53;71609.50;;;19.31
64600;BMP280;6553;48.412;9.514;2022-10-30T00:27:19;71611.72;;;19.30
64600;BMP280;6553;48.412;9.514;2022-10-30T00:29:46;71612.81;;;19.31
64600;BMP280;6553;48.412;9.514;2022-10-30T00:32:12;71609.50;;;19.31
64600;BMP280;6553;48.412;9.514;2022-10-30T00:34:37;71609.50;;;19.31
64600;BMP280;6553;48.412;9.514;2022-10-30T00:37:06;71609.50;;;19.31
64600;BMP280;6553;48.412;9.514;2022-10-30T00:39:31;71612.25;;;19.31
64600;BMP280;6553;48.412;9.514;2022-10-30T00:41:57;71610.13;;;19.29
64600;BMP280;6553;48.412;9.514;2022-10-30T00:47:22;71606.31;;;19.28
64600;BMP280;6553;48.412;9.514;2022-10-30T00:50:06;71604.59;;;19.29
64600;BMP280;6553;48.412;9.514;2022-10-30T00:52:41;71611.19;;;19.30
64600;BMP280;6553;48.412;9.514;2022-10-30T00:55:18;71610.13;;;19.29
64600;BMP280;6553;48.412;9.514;2022-10-30T00:57:47;71605.66;;;19.30
64600;BMP280;6553;48.412;9.514;2022-10-30T01:00:15;71608.97;;;19.30
64600;BMP280;6553;48.412;9.514;2022-10-30T01:02:43;71606.81;;;19.28
64600;BMP280;6553;48.412;9.514;2022-10-30T01:05:15;71607.34;;;19.29
64600;BMP280;6553;48.412;9.514;2022-10-30T01:07:42;71609.06;;;19.28
64600;BMP280;6553;48.412;9.514;2022-10-30T01:10:10;71605.78;;;19.27
64600;BMP280;6553;48.412;9.514;2022-10-30T01:12:37;71604.59;;;19.29
64600;BMP280;6553;48.412;9.514;2022-10-30T01:15:06;71604.59;;;19.29
64600;BMP280;6553;48.412;9.514;2022-10-30T01:18:15;71605.78;;;19.27
64600;BMP280;6553;48.412;9.514;2022-10-30T01:21:29;71605.25;;;19.27
64600;BMP280;6553;48.412;9.514;2022-10-30T01:24:18;71609.06;;;19.28
64600;BMP280;6553;48.412;9.514;2022-10-30T01:30:10;71597.56;;;19.25
64600;BMP280;6553;48.412;9.514;2022-10-30T01:33:20;71603.63;;;19.25
64600;BMP280;6553;48.412;9.514;2022-10-30T01:36:25;71602.47;;;19.27
64600;BMP280;6553;48.412;9.514;2022-10-30T01:39:01;71600.34;;;19.25
64600;BMP280;6553;48.412;9.514;2022-10-30T01:41:28;71596.41;;;19.26
64600;BMP280;6553;48.412;9.514;2022-10-30T01:44:06;71603.09;;;19.25
64600;BMP280;6553;48.412;9.514;2022-10-30T01:46:47;71605.78;;;19.27
64600;BMP280;6553;48.412;9.514;2022-10-30T01:58:19;71600.88;;;19.25
64600;BMP280;6553;48.412;9.514;2022-10-30T02:00:55;71604.28;;;19.23
64600;BMP280;6553;48.412;9.514;2022-10-30T02:03:22;71599.81;;;19.24
64600;BMP280;6553;48.412;9.514;2022-10-30T02:05:50;71599.81;;;19.24
64600;BMP280;6553;48.412;9.514;2022-10-30T02:08:18;71597.56;;;19.25
64600;BMP280;6553;48.412;9.514;2022-10-30T02:10:47;71599.38;;;19.21
64600;BMP280;6553;48.412;9.514;2022-10-30T02:13:14;71602.06;;;19.24
64600;BMP280;6553;48.412;9.514;2022-10-30T02:15:43;71601.50;;;19.23
64600;BMP280;6553;48.412;9.514;2022-10-30T02:18:10;71601.00;;;19.23
64600;BMP280;6553;48.412;9.514;2022-10-30T02:20:36;71599.28;;;19.24
64600;BMP280;6553;48.412;9.514;2022-10-30T02:23:03;71602.06;;;19.24
64600;BMP280;6553;48.412;9.514;2022-10-30T02:25:33;71591.09;;;19.21
64600;BMP280;6553;48.412;9.514;2022-10-30T02:27:59;71599.28;;;19.24
64600;BMP280;6553;48.412;9.514;2022-10-30T02:30:28;71597.56;;;19.25
64600;BMP280;6553;48.412;9.514;2022-10-30T02:32:53;71594.94;;;19.22
64600;BMP280;6553;48.412;9.514;2022-10-30T02:35:19;71599.38;;;19.21
64600;BMP280;6553;48.412;9.514;2022-10-30T02:37:48;71602.16;;;19.21
64600;BMP280;6553;48.412;9.514;2022-10-30T02:40:14;71600.47;;;19.22
64600;BMP280;6553;48.412;9.514;2022-10-30T02:42:39;71599.94;;;19.22
64600;BMP280;6553;48.412;9.514;2022-10-30T02:45:06;71598.88;;;19.21
64600;BMP280;6553;48.412;9.514;2022-10-30T02:47:32;71597.81;;;19.20
64600;BMP280;6553;48.412;9.514;2022-10-30T02:49:58;71594.41;;;19.22
64600;BMP280;6553;48.412;9.514;2022-10-30T02:52:25;71594.41;;;19.22
64600;BMP280;6553;48.412;9.514;2022-10-30T02:54:50;71596.72;;;19.19
64600;BMP280;6553;48.412;9.514;2022-10-30T02:57:16;71595.56;;;19.20
64600;BMP280;6553;48.412;9.514;2022-10-30T02:59:43;71593.97;;;19.19
64600;BMP280;6553;48.412;9.514;2022-10-30T03:02:09;71593.34;;;19.21
64600;BMP280;6553;48.412;9.514;2022-10-30T03:04:35;71592.28;;;19.20
64600;BMP280;6553;48.412;9.514;2022-10-30T03:07:01;71598.88;;;19.21
64600;BMP280;6553;48.412;9.514;2022-10-30T03:09:27;71601.00;;;19.23
64600;BMP280;6553;48.412;9.514;2022-10-30T03:11:53;71599.94;;;19.22
64600;BMP280;6553;48.412;9.514;2022-10-30T03:14:21;71595.03;;;19.20
64600;BMP280;6553;48.412;9.514;2022-10-30T03:16:47;71595.03;;;19.20
64600;BMP280;6553;48.412;9.514;2022-10-30T03:19:14;71592.81;;;19.20
64600;BMP280;6553;48.412;9.514;2022-10-30T03:21:40;71600.56;;;19.20
64600;BMP280;6553;48.412;9.514;2022-10-30T03:24:06;71592.28;;;19.20
64600;BMP280;6553;48.412;9.514;2022-10-30T03:26:32;71595.56;;;19.20
64600;BMP280;6553;48.412;9.514;2022-10-30T03:29:06;71594.50;;;19.19
64600;BMP280;6553;48.412;9.514;2022-10-30T03:31:32;71597.81;;;19.20
64600;BMP280;6553;48.412;9.514;2022-10-30T03:34:17;71588.97;;;19.19
64600;BMP280;6553;48.412;9.514;2022-10-30T03:36:43;71596.22;;;19.18
64600;BMP280;6553;48.412;9.514;2022-10-30T03:39:10;71596.22;;;19.18
64600;BMP280;6553;48.412;9.514;2022-10-30T03:41:36;71600.56;;;19.20
64600;BMP280;6553;48.412;9.514;2022-10-30T03:44:02;71590.16;;;19.18
64600;BMP280;6553;48.412;9.514;2022-10-30T03:46:28;71587.38;;;19.18
64600;BMP280;6553;48.412;9.514;2022-10-30T03:49:04;71591.31;;;19.16
64600;BMP280;6553;48.412;9.514;2022-10-30T03:51:30;71595.03;;;19.20
64600;BMP280;6553;48.412;9.514;2022-10-30T03:53:56;71594.63;;;19.17
64600;BMP280;6553;48.412;9.514;2022-10-30T03:56:22;71598.44;;;19.18
64600;BMP280;6553;48.412;9.514;2022-10-30T03:58:52;71592.91;;;19.18
64600;BMP280;6553;48.412;9.514;2022-10-30T04:01:20;71596.22;;;19.18
64600;BMP280;6553;48.412;9.514;2022-10-30T04:03:52;71595.69;;;19.18
64600;BMP280;6553;48.412;9.514;2022-10-30T04:06:18;71591.94;;;19.14
64600;BMP280;6553;48.412;9.514;2022-10-30T04:08:44;71587.59;;;19.13
64600;BMP280;6553;48.412;9.514;2022-10-30T04:11:10;71596.72;;;19.19
64600;BMP280;6553;48.412;9.514;2022-10-30T04:13:37;71592.91;;;19.18
64600;BMP280;6553;48.412;9.514;2022-10-30T04:16:03;71590.78;;;19.16
64600;BMP280;6553;48.412;9.514;2022-10-30T04:18:31;71594.63;;;19.17
64600;BMP280;6553;48.412;9.514;2022-10-30T04:20:59;71592.91;;;19.18
64600;BMP280;6553;48.412;9.514;2022-10-30T04:23:24;71596.31;;;19.16
64600;BMP280;6553;48.412;9.514;2022-10-30T04:25:50;71587.59;;;19.13
64600;BMP280;6553;48.412;9.514;2022-10-30T04:28:17;71592.47;;;19.15
64600;BMP280;6553;48.412;9.514;2022-10-30T04:30:43;71591.94;;;19.14
64600;BMP280;6553;48.412;9.514;2022-10-30T04:33:11;71594.72;;;19.14
64600;BMP280;6553;48.412;9.514;2022-10-30T04:35:39;71587.47;;;19.15
64600;BMP280;6553;48.412;9.514;2022-10-30T04:38:13;71595.78;;;19.15
64600;BMP280;6553;48.412;9.514;2022-10-30T04:40:42;71593.56;;;19.16
64600;BMP280;6553;48.412;9.514;2022-10-30T04:43:11;71588.03;;;19.16
64600;BMP280;6553;48.412;9.514;2022-10-30T04:45:38;71589.19;;;19.14
64600;BMP280;6553;48.412;9.514;2022-10-30T04:48:12;71591.94;;;19.14
64600;BMP280;6553;48.412;9.514;2022-10-30T04:50:38;71590.91;;;19.13
64600;BMP280;6553;48.412;9.514;2022-10-30T04:53:09;71594.22;;;19.14
64600;BMP280;6553;48.412;9.514;2022-10-30T04:55:36;71581.00;;;19.12
64600;BMP280;6553;48.412;9.514;2022-10-30T04:58:02;71590.91;;;19.13
64600;BMP280;6553;48.412;9.514;2022-10-30T05:00:31;71594.72;;;19.14
64600;BMP280;6553;48.412;9.514;2022-10-30T05:03:04;71594.72;;;19.14
64600;BMP280;6553;48.412;9.514;2022-10-30T05:05:31;71589.84;;;19.12
64600;BMP280;6553;48.412;9.514;2022-10-30T05:07:57;71589.84;;;19.12
64600;BMP280;6553;48.412;9.514;2022-10-30T05:10:23;71587.59;;;19.13
64600;BMP280;6553;48.412;9.514;2022-10-30T05:12:51;71588.69;;;19.14
64600;BMP280;6553;48.412;9.514;2022-10-30T05:15:21;71589.84;;;19.12
64600;BMP280;6553;48.412;9.514;2022-10-30T05:17:51;71582.06;;;19.13
64600;BMP280;6553;48.412;9.514;2022-10-30T05:20:19;71584.94;;;19.10
64600;BMP280;6553;48.412;9.514;2022-10-30T05:22:44;71587.06;;;19.12
64600;BMP280;6553;48.412;9.514;2022-10-30T05:25:10;71585.06;;;19.08
64600;BMP280;6553;48.412;9.514;2022-10-30T05:27:36;71582.19;;;19.10
64600;BMP280;6553;48.412;9.514;2022-10-30T05:30:02;71588.78;;;19.11
64600;BMP280;6553;48.412;9.514;2022-10-30T05:32:28;71587.59;;;19.13
64600;BMP280;6553;48.412;9.514;2022-10-30T05:34:54;71582.69;;;19.11
64600;BMP280;6553;48.412;9.514;2022-10-30T05:37:21;71582.69;;;19.11
64600;BMP280;6553;48.412;9.514;2022-10-30T05:39:47;71588.22;;;19.11
64600;BMP280;6553;48.412;9.514;2022-10-30T05:42:27;71587.19;;;19.10
64600;BMP280;6553;48.412;9.514;2022-10-30T05:44:55;71582.69;;;19.11
64600;BMP280;6553;48.412;9.514;2022-10-30T05:47:21;71588.22;;;19.11
64600;BMP280;6553;48.412;9.514;2022-10-30T05:49:51;71581.13;;;19.09
64600;BMP280;6553;48.412;9.514;2022-10-30T05:52:20;71583.91;;;19.09
64600;BMP280;6553;48.412;9.514;2022-10-30T05:54:48;71589.44;;;19.09
64600;BMP280;6553;48.412;9.514;2022-10-30T05:57:19;71584.44;;;19.10
64600;BMP280;6553;48.412;9.514;2022-10-30T05:59:45;71583.47;;;19.06
64600;BMP280;6553;48.412;9.514;2022-10-30T06:02:12;71586.13;;;19.09
64600;BMP280;6553;48.412;9.514;2022-10-30T06:04:38;71582.28;;;19.08
64600;BMP280;6553;48.412;9.514;2022-10-30T06:07:09;71581.66;;;19.10
64600;BMP280;6553;48.412;9.514;2022-10-30T06:09:36;71581.66;;;19.10
64600;BMP280;6553;48.412;9.514;2022-10-30T06:12:02;71582.81;;;19.08
64600;BMP280;6553;48.412;9.514;2022-10-30T06:14:48;71583.38;;;19.09
64600;BMP280;6553;48.412;9.514;2022-10-30T06:17:13;71583.38;;;19.09
64600;BMP280;6553;48.412;9.514;2022-10-30T06:19:52;71579.63;;;19.05
64600;BMP280;6553;48.412;9.514;2022-10-30T06:22:37;71583.38;;;19.09
64600;BMP280;6553;48.412;9.514;2022-10-30T06:25:12;71584.53;;;19.07
64600;BMP280;6553;48.412;9.514;2022-10-30T06:27:51;71579.00;;;19.07
64600;BMP280;6553;48.412;9.514;2022-10-30T06:30:18;71585.06;;;19.08
64600;BMP280;6553;48.412;9.514;2022-10-30T06:32:44;71581.25;;;19.07
64600;BMP280;6553;48.412;9.514;2022-10-30T06:35:11;71585.06;;;19.08
64600;BMP280;6553;48.412;9.514;2022-10-30T06:37:36;71576.88;;;19.05
64600;BMP280;6553;48.412;9.514;2022-10-30T06:40:09;71582.94;;;19.06
64600;BMP280;6553;48.412;9.514;2022-10-30T06:42:57;71580.16;;;19.06
64600;BMP280;6553;48.412;9.514;2022-10-30T06:45:31;71577.41;;;19.06
64600;BMP280;6553;48.412;9.514;2022-10-30T06:47:59;71587.28;;;19.07
64600;BMP280;6553;48.412;9.514;2022-10-30T06:50:26;71579.63;;;19.05
64600;BMP280;6553;48.412;9.514;2022-10-30T06:52:52;71577.41;;;19.06
64600;BMP280;6553;48.412;9.514;2022-10-30T06:55:20;71577.41;;;19.06
64600;BMP280;6553;48.412;9.514;2022-10-30T06:58:04;71577.41;;;19.06
64600;BMP280;6553;48.412;9.514;2022-10-30T07:00:41;71580.16;;;19.06
64600;BMP280;6553;48.412;9.514;2022-10-30T07:03:25;71584.53;;;19.07
64600;BMP280;6553;48.412;9.514;2022-10-30T07:05:51;71579.13;;;19.05
64600;BMP280;6553;48.412;9.514;2022-10-30T07:08:16;71584.44;;;19.10
64600;BMP280;6553;48.412;9.514;2022-10-30T07:10:42;71584.44;;;19.10
64600;BMP280;6553;48.412;9.514;2022-10-30T07:13:28;71584.44;;;19.10
64600;BMP280;6553;48.412;9.514;2022-10-30T07:16:13;71585.47;;;19.11
64600;BMP280;6553;48.412;9.514;2022-10-30T07:18:41;71583.25;;;19.11
64600;BMP280;6553;48.412;9.514;2022-10-30T07:21:08;71589.31;;;19.12
64600;BMP280;6553;48.412;9.514;2022-10-30T07:23:33;71586.53;;;19.12
64600;BMP280;6553;48.412;9.514;2022-10-30T07:26:17;71585.91;;;19.14
64600;BMP280;6553;48.412;9.514;2022-10-30T07:28:45;71591.94;;;19.14
64600;BMP280;6553;48.412;9.514;2022-10-30T07:31:13;71589.84;;;19.12
64600;BMP280;6553;48.412;9.514;2022-10-30T07:33:45;71590.78;;;19.16
64600;BMP280;6553;48.412;9.514;2022-10-30T07:36:37;71589.09;;;19.17
64600;BMP280;6553;48.412;9.514;2022-10-30T07:39:23;71594.63;;;19.17
64600;BMP280;6553;48.412;9.514;2022-10-30T07:42:10;71593.44;;;19.18
64600;BMP280;6553;48.412;9.514;2022-10-30T07:44:45;71593.97;;;19.19
64600;BMP280;6553;48.412;9.514;2022-10-30T07:47:14;71594.50;;;19.19
64600;BMP280;6553;48.412;9.514;2022-10-30T07:50:01;71598.34;;;19.20
64600;BMP280;6553;48.412;9.514;2022-10-30T07:52:32;71593.34;;;19.21
64600;BMP280;6553;48.412;9.514;2022-10-30T07:54:59;71597.16;;;19.22
64600;BMP280;6553;48.412;9.514;2022-10-30T07:57:43;71596.09;;;19.21
64600;BMP280;6553;48.412;9.514;2022-10-30T08:00:27;71596.63;;;19.21
64600;BMP280;6553;48.412;9.514;2022-10-30T08:03:02;71596.09;;;19.21
64600;BMP280;6553;48.412;9.514;2022-10-30T08:05:35;71594.41;;;19.22
64600;BMP280;6553;48.412;9.514;2022-10-30T08:08:13;71598.22;;;19.23
64600;BMP280;6553;48.412;9.514;2022-10-30T08:10:39;71599.81;;;19.24
64600;BMP280;6553;48.412;9.514;2022-10-30T08:13:05;71605.25;;;19.27
64600;BMP280;6553;48.412;9.514;2022-10-30T08:15:31;71602.47;;;19.27
64600;BMP280;6553;48.412;9.514;2022-10-30T08:17:57;71602.47;;;19.27
64600;BMP280;6553;48.412;9.514;2022-10-30T08:20:24;71604.59;;;19.29
64600;BMP280;6553;48.412;9.514;2022-10-30T08:22:56;71605.25;;;19.27
64600;BMP280;6553;48.412;9.514;2022-10-30T08:25:28;71607.88;;;19.29
64600;BMP280;6553;48.412;9.514;2022-10-30T08:28:04;71606.19;;;19.30
64600;BMP280;6553;48.412;9.514;2022-10-30T08:30:35;71609.50;;;19.31
64600;BMP280;6553;48.412;9.514;2022-10-30T08:33:06;71610.56;;;19.32
64600;BMP280;6553;48.412;9.514;2022-10-30T08:35:59;71614.25;;;19.35
64600;BMP280;6553;48.412;9.514;2022-10-30T08:38:27;71617.56;;;19.36
64600;BMP280;6553;48.412;9.514;2022-10-30T08:41:09;71610.44;;;19.34
64600;BMP280;6553;48.412;9.514;2022-10-30T08:43:41;71617.03;;;19.35
64600;BMP280;6553;48.412;9.514;2022-10-30T08:46:06;71609.38;;;19.33
64600;BMP280;6553;48.412;9.514;2022-10-30T08:48:32;71605.00;;;19.32
64600;BMP280;6553;48.412;9.514;2022-10-30T08:50:58;71605.00;;;19.32
64600;BMP280;6553;48.412;9.514;2022-10-30T08:53:31;71614.91;;;19.33
64600;BMP280;6553;48.412;9.514;2022-10-30T08:55:57;71613.22;;;19.34
64600;BMP280;6553;48.412;9.514;2022-10-30T08:58:34;71610.44;;;19.34
64600;BMP280;6553;48.412;9.514;2022-10-30T09:01:01;71613.75;;;19.35
64600;BMP280;6553;48.412;9.514;2022-10-30T09:03:59;71612.53;;;19.36
64600;BMP280;6553;48.412;9.514;2022-10-30T09:06:53;71614.91;;;19.33
64600;BMP280;6553;48.412;9.514;2022-10-30T09:09:36;71622.56;;;19.35
64600;BMP280;6553;48.412;9.514;2022-10-30T09:12:03;71616.50;;;19.35
64600;BMP280;6553;48.412;9.514;2022-10-30T09:14:35;71611.50;;;19.35
64600;BMP280;6553;48.412;9.514;2022-10-30T09:17:02;71625.22;;;19.38
64600;BMP280;6553;48.412;9.514;2022-10-30T09:19:29;71613.09;;;19.37
64600;BMP280;6553;48.412;9.514;2022-10-30T09:21:57;71619.16;;;19.37
64600;BMP280;6553;48.412;9.514;2022-10-30T09:24:23;71614.66;;;19.38
64600;BMP280;6553;48.412;9.514;2022-10-30T09:26:48;71620.75;;;19.39
64600;BMP280;6553;48.412;9.514;2022-10-30T09:29:23;71619.69;;;19.38
64600;BMP280;6553;48.412;9.514;2022-10-30T09:32:02;71615.22;;;19.39
64600;BMP280;6553;48.412;9.514;2022-10-30T09:34:31;71616.28;;;19.40
64600;BMP280;6553;48.412;9.514;2022-10-30T09:37:04;71618.50;;;19.39
64600;BMP280;6553;48.412;9.514;2022-10-30T09:39:34;71627.34;;;19.40
64600;BMP280;6553;48.412;9.514;2022-10-30T09:42:41;71621.16;;;19.42
64600;BMP280;6553;48.412;9.514;2022-10-30T09:54:31;71627.22;;;19.42
64600;BMP280;6553;48.412;9.514;2022-10-30T10:00:10;71624.47;;;19.42
64600;BMP280;6553;48.412;9.514;2022-10-30T10:02:55;71621.69;;;19.42
64600;BMP280;6553;48.412;9.514;2022-10-30T10:05:51;71621.69;;;19.42
64600;BMP280;6553;48.412;9.514;2022-10-30T10:08:57;71620.00;;;19.43
64600;BMP280;6553;48.412;9.514;2022-10-30T10:11:56;71626.06;;;19.44
64600;BMP280;6553;48.412;9.514;2022-10-30T10:14:31;71615.00;;;19.44
64600;BMP280;6553;48.412;9.514;2022-10-30T10:17:01;71622.75;;;19.43
64600;BMP280;6553;48.412;9.514;2022-10-30T10:19:39;71625.53;;;19.43
64600;BMP280;6553;48.412;9.514;2022-10-30T10:22:24;71626.59;;;19.44
64600;BMP280;6553;48.412;9.514;2022-10-30T10:24:52;71617.75;;;19.44
64600;BMP280;6553;48.412;9.514;2022-10-30T10:30:19;71627.63;;;19.45
64600;BMP280;6553;48.412;9.514;2022-10-30T10:33:25;71623.16;;;19.46
64600;BMP280;6553;48.412;9.514;2022-10-30T10:36:28;71628.09;;;19.48
64600;BMP280;6553;48.412;9.514;2022-10-30T10:42:23;71635.84;;;19.48
64600;BMP280;6553;48.412;9.514;2022-10-30T10:45:15;71633.09;;;19.48
64600;BMP280;6553;48.412;9.514;2022-10-30T10:50:48;71628.09;;;19.48
64600;BMP280;6553;48.412;9.514;2022-10-30T10:54:01;71629.13;;;19.49
64600;BMP280;6553;48.412;9.514;2022-10-30T10:56:36;71624.78;;;19.48
64600;BMP280;6553;48.412;9.514;2022-10-30T10:59:29;71624.66;;;19.50
64600;BMP280;6553;48.412;9.514;2022-10-30T11:05:43;71629.66;;;19.50
64600;BMP280;6553;48.412;9.514;2022-10-30T11:08:27;71627.41;;;19.50
64600;BMP280;6553;48.412;9.514;2022-10-30T11:11:06;71629.13;;;19.49
64600;BMP280;6553;48.412;9.514;2022-10-30T11:13:39;71629.66;;;19.50
64600;BMP280;6553;48.412;9.514;2022-10-30T11:16:55;71632.41;;;19.50
64600;BMP280;6553;48.412;9.514;2022-10-30T11:19:18;71629.03;;;19.52
64600;BMP280;6553;48.412;9.514;2022-10-30T11:21:49;71631.78;;;19.52
64600;BMP280;6553;48.412;9.514;2022-10-30T11:24:35;71633.50;;;19.51
64600;BMP280;6553;48.412;9.514;2022-10-30T11:30:02;71635.06;;;19.52
64600;BMP280;6553;48.412;9.514;2022-10-30T11:32:31;71627.31;;;19.53
64600;BMP280;6553;48.412;9.514;2022-10-30T11:37:40;71629.53;;;19.52
64600;BMP280;6553;48.412;9.514;2022-10-30T11:42:44;71632.19;;;19.55
64600;BMP280;6553;48.412;9.514;2022-10-30T11:45:28;71630.09;;;19.53
64600;BMP280;6553;48.412;9.514;2022-10-30T11:47:58;71630.09;;;19.53
64600;BMP280;6553;48.412;9.514;2022-10-30T11:50:30;71633.91;;;19.54
64600;BMP280;6553;48.412;9.514;2022-10-30T11:53:00;71636.66;;;19.54
64600;BMP280;6553;48.412;9.514;2022-10-30T11:55:45;71629.97;;;19.55
64600;BMP280;6553;48.412;9.514;2022-10-30T11:58:32;71632.75;;;19.55
64600;BMP280;6553;48.412;9.514;2022-10-30T12:01:13;71632.63;;;19.58
64600;BMP280;6553;48.412;9.514;2022-10-30T12:03:41;71640.94;;;19.58
64600;BMP280;6553;48.412;9.514;2022-10-30T12:06:19;71640.94;;;19.58
64600;BMP280;6553;48.412;9.514;2022-10-30T12:11:36;71636.44;;;19.59
64600;BMP280;6553;48.412;9.514;2022-10-30T12:14:04;71633.16;;;19.58
64600;BMP280;6553;48.412;9.514;2022-10-30T12:16:32;71634.31;;;19.57
64600;BMP280;6553;48.412;9.514;2022-10-30T12:19:06;71634.31;;;19.57
64600;BMP280;6553;48.412;9.514;2022-10-30T12:21:48;71635.81;;;19.61
64600;BMP280;6553;48.412;9.514;2022-10-30T12:24:36;71643.03;;;19.60
64600;BMP280;6553;48.412;9.514;2022-10-30T12:27:10;71637.50;;;19.60
64600;BMP280;6553;48.412;9.514;2022-10-30T12:30:14;71639.22;;;19.59
64600;BMP280;6553;48.412;9.514;2022-10-30T12:33:00;71635.81;;;19.61
64600;BMP280;6553;48.412;9.514;2022-10-30T12:43:45;71641.34;;;19.61
64600;BMP280;6553;48.412;9.514;2022-10-30T12:49:02;71642.41;;;19.62
64600;BMP280;6553;48.412;9.514;2022-10-30T12:51:51;71646.22;;;19.63
64600;BMP280;6553;48.412;9.514;2022-10-30T12:54:34;71639.66;;;19.62
64600;BMP280;6553;48.412;9.514;2022-10-30T12:57:16;71646.75;;;19.63
64600;BMP280;6553;48.412;9.514;2022-10-30T12:59:59;71640.69;;;19.63
64600;BMP280;6553;48.412;9.514;2022-10-30T13:02:45;71640.16;;;19.63
64600;BMP280;6553;48.412;9.514;2022-10-30T13:05:39;71647.97;;;19.62
64600;BMP280;6553;48.412;9.514;2022-10-30T13:08:31;71645.06;;;19.65
64600;BMP280;6553;48.412;9.514;2022-10-30T13:13:50;71644.53;;;19.64
64600;BMP280;6553;48.412;9.514;2022-10-30T13:16:27;71645.59;;;19.65
64600;BMP280;6553;48.412;9.514;2022-10-30T13:18:59;71644.53;;;19.64
64600;BMP280;6553;48.412;9.514;2022-10-30T13:24:19;71643.38;;;19.66
64600;BMP280;6553;48.412;9.514;2022-10-30T13:29:44;71643.38;;;19.66
64600;BMP280;6553;48.412;9.514;2022-10-30T13:38:24;71647.19;;;19.67
64600;BMP280;6553;48.412;9.514;2022-10-30T13:41:34;71647.69;;;19.67
64600;BMP280;6553;48.412;9.514;2022-10-30T13:44:45;71647.69;;;19.67
64600;BMP280;6553;48.412;9.514;2022-10-30T13:52:58;71646.00;;;19.68
64600;BMP280;6553;48.412;9.514;2022-10-30T13:55:28;71646.53;;;19.69
64600;BMP280;6553;48.412;9.514;2022-10-30T13:58:24;71648.78;;;19.68
64600;BMP280;6553;48.412;9.514;2022-10-30T14:01:24;71644.94;;;19.67
64600;BMP280;6553;48.412;9.514;2022-10-30T14:04:29;71642.28;;;19.65
64600;BMP280;6553;48.412;9.514;2022-10-30T14:07:25;71644.94;;;19.67
64600;BMP280;6553;48.412;9.514;2022-10-30T14:10:09;71646.66;;;19.66
64600;BMP280;6553;48.412;9.514;2022-10-30T14:20:47;71643.91;;;19.66
64600;BMP280;6553;48.412;9.514;2022-10-30T14:28:37;71644.31;;;19.69
64600;BMP280;6553;48.412;9.514;2022-10-30T14:31:16;71652.09;;;19.69
64600;BMP280;6553;48.412;9.514;2022-10-30T14:33:51;71644.84;;;19.70
64600;BMP280;6553;48.412;9.514;2022-10-30T14:39:28;71646.00;;;19.68
64600;BMP280;6553;48.412;9.514;2022-10-30T14:45:47;71649.84;;;19.69
64600;BMP280;6553;48.412;9.514;2022-10-30T14:48:27;71652.09;;;19.69
64600;BMP280;6553;48.412;9.514;2022-10-30T14:51:34;71648.13;;;19.70
64600;BMP280;6553;48.412;9.514;2022-10-30T14:54:47;71652.09;;;19.69
64600;BMP280;6553;48.412;9.514;2022-10-30T14:57:48;71652.63;;;19.69
64600;BMP280;6553;48.412;9.514;2022-10-30T15:03:12;71645.38;;;19.70
64600;BMP280;6553;48.412;9.514;2022-10-30T15:05:55;71646.00;;;19.68
64600;BMP280;6553;48.412;9.514;2022-10-30T15:14:29;71647.06;;;19.69
64600;BMP280;6553;48.412;9.514;2022-10-30T15:16:56;71645.47;;;19.68
64600;BMP280;6553;48.412;9.514;2022-10-30T15:19:23;71648.78;;;19.68
64600;BMP280;6553;48.412;9.514;2022-10-30T15:21:52;71649.84;;;19.69
64600;BMP280;6553;48.412;9.514;2022-10-30T15:24:22;71647.63;;;19.70
64600;BMP280;6553;48.412;9.514;2022-10-30T15:26:55;71643.78;;;19.69
64600;BMP280;6553;48.412;9.514;2022-10-30T15:29:34;71646.00;;;19.68
64600;BMP280;6553;48.412;9.514;2022-10-30T15:32:13;71639.00;;;19.64
64600;BMP280;6553;48.412;9.514;2022-10-30T15:34:39;71642.81;;;19.65
64600;BMP280;6553;48.412;9.514;2022-10-30T15:37:11;71642.81;;;19.65
64600;BMP280;6553;48.412;9.514;2022-10-30T15:39:37;71643.91;;;19.66
64600;BMP280;6553;48.412;9.514;2022-10-30T15:42:03;71650.47;;;19.67
64600;BMP280;6553;48.412;9.514;2022-10-30T15:44:33;71647.63;;;19.70
64600;BMP280;6553;48.412;9.514;2022-10-30T15:47:02;71645.47;;;19.68
64600;BMP280;6553;48.412;9.514;2022-10-30T15:49:33;71645.47;;;19.68
64600;BMP280;6553;48.412;9.514;2022-10-30T15:52:04;71643.91;;;19.66
64600;BMP280;6553;48.412;9.514;2022-10-30T15:54:40;71641.13;;;19.66
64600;BMP280;6553;48.412;9.514;2022-10-30T15:57:26;71646.66;;;19.66
64600;BMP280;6553;48.412;9.514;2022-10-30T15:59:58;71642.81;;;19.65
64600;BMP280;6553;48.412;9.514;2022-10-30T16:02:25;71642.28;;;19.65
64600;BMP280;6553;48.412;9.514;2022-10-30T16:04:54;71640.59;;;19.66
64600;BMP280;6553;48.412;9.514;2022-10-30T16:07:24;71645.47;;;19.68
64600;BMP280;6553;48.412;9.514;2022-10-30T16:09:57;71651.00;;;19.68
64600;BMP280;6553;48.412;9.514;2022-10-30T16:12:32;71642.16;;;19.67
64600;BMP280;6553;48.412;9.514;2022-10-30T16:15:06;71647.19;;;19.67
64600;BMP280;6553;48.412;9.514;2022-10-30T16:17:33;71646.66;;;19.66
64600;BMP280;6553;48.412;9.514;2022-10-30T16:20:02;71644.94;;;19.67
64600;BMP280;6553;48.412;9.514;2022-10-30T16:22:35;71646.53;;;19.69
64600;BMP280;6553;48.412;9.514;2022-10-30T16:25:08;71651.00;;;19.68
64600;BMP280;6553;48.412;9.514;2022-10-30T16:27:44;71643.44;;;19.63
64600;BMP280;6553;48.412;9.514;2022-10-30T16:30:15;71647.19;;;19.67
64600;BMP280;6553;48.412;9.514;2022-10-30T16:32:48;71646.66;;;19.66
64600;BMP280;6553;48.412;9.514;2022-10-30T16:35:20;71638.88;;;19.67
64600;BMP280;6553;48.412;9.514;2022-10-30T16:37:48;71642.81;;;19.65
64600;BMP280;6553;48.412;9.514;2022-10-30T16:40:22;71642.81;;;19.65
64600;BMP280;6553;48.412;9.514;2022-10-30T16:42:54;71639.00;;;19.64
64600;BMP280;6553;48.412;9.514;2022-10-30T16:47:59;71644.41;;;19.67
64600;BMP280;6553;48.412;9.514;2022-10-30T16:50:34;71647.19;;;19.67
64600;BMP280;6553;48.412;9.514;2022-10-30T16:53:21;71641.66;;;19.67